AAL1669 KDFW-KLAX
Flight info
| Callsign | AAL1669 |
|---|---|
| Flight time | N/A |
| Altitude | 34000 |
| Route | WSTEX2 CIKAN EWM SSO J50 TFD ESTWD HLYWD1 |
| Aircraft | A321/M-SDE3FGHIRWY/LB1 |
Departure
| Time | 2026-05-07 16:32 |
|---|---|
| Airport | Dallas Fort Worth International Airport (KDFW) |
Arrival
| Time | N/A |
|---|---|
| Airport | Los Angeles International Airport (KLAX) |
| Time | Latitude | Longitude | Altitude | Speed | Heading |
|---|---|---|---|---|---|
| 2026-05-07 15:52 | 32.90060 | -97.03877 | 587 ft | 0 kts | 190° |
| 2026-05-07 16:19 | 32.90062 | -97.03877 | 587 ft | 3 kts | 190° |
| 2026-05-07 16:19 | 32.90086 | -97.03870 | 587 ft | 2 kts | 192° |
| 2026-05-07 16:19 | 32.90106 | -97.03869 | 587 ft | 4 kts | 153° |
| 2026-05-07 16:20 | 32.90118 | -97.03876 | 587 ft | 4 kts | 146° |
| 2026-05-07 16:20 | 32.90113 | -97.03850 | 587 ft | 4 kts | 91° |
| 2026-05-07 16:20 | 32.90113 | -97.03822 | 587 ft | 2 kts | 91° |
| 2026-05-07 16:20 | 32.90113 | -97.03790 | 587 ft | 4 kts | 90° |
| 2026-05-07 16:21 | 32.90113 | -97.03760 | 587 ft | 2 kts | 90° |
| 2026-05-07 16:21 | 32.90112 | -97.03758 | 587 ft | 0 kts | 90° |
| 2026-05-07 16:24 | 32.90112 | -97.03755 | 587 ft | 2 kts | 90° |
| 2026-05-07 16:24 | 32.90112 | -97.03689 | 587 ft | 14 kts | 90° |
| 2026-05-07 16:24 | 32.90111 | -97.03556 | 587 ft | 16 kts | 90° |
| 2026-05-07 16:24 | 32.90109 | -97.03418 | 586 ft | 17 kts | 90° |
| 2026-05-07 16:25 | 32.90103 | -97.03337 | 586 ft | 8 kts | 114° |
| 2026-05-07 16:25 | 32.90045 | -97.03314 | 585 ft | 11 kts | 176° |
| 2026-05-07 16:25 | 32.89950 | -97.03316 | 586 ft | 16 kts | 181° |
| 2026-05-07 16:25 | 32.89839 | -97.03316 | 586 ft | 16 kts | 179° |
| 2026-05-07 16:26 | 32.89726 | -97.03316 | 586 ft | 16 kts | 180° |
| 2026-05-07 16:26 | 32.89611 | -97.03316 | 586 ft | 17 kts | 180° |
| 2026-05-07 16:26 | 32.89494 | -97.03317 | 585 ft | 17 kts | 180° |
| 2026-05-07 16:26 | 32.89373 | -97.03317 | 584 ft | 18 kts | 180° |
| 2026-05-07 16:27 | 32.89245 | -97.03318 | 583 ft | 19 kts | 180° |
| 2026-05-07 16:27 | 32.89113 | -97.03318 | 583 ft | 19 kts | 179° |
| 2026-05-07 16:27 | 32.89055 | -97.03318 | 582 ft | 20 kts | 180° |
| 2026-05-07 16:27 | 32.88917 | -97.03318 | 582 ft | 20 kts | 181° |
| 2026-05-07 16:28 | 32.88782 | -97.03320 | 582 ft | 20 kts | 180° |
| 2026-05-07 16:28 | 32.88640 | -97.03321 | 582 ft | 16 kts | 180° |
| 2026-05-07 16:28 | 32.88533 | -97.03318 | 578 ft | 15 kts | 168° |
| 2026-05-07 16:28 | 32.88430 | -97.03288 | 576 ft | 15 kts | 179° |
| 2026-05-07 16:29 | 32.88327 | -97.03291 | 577 ft | 15 kts | 179° |
| 2026-05-07 16:29 | 32.88220 | -97.03290 | 579 ft | 16 kts | 179° |
| 2026-05-07 16:29 | 32.88128 | -97.03289 | 577 ft | 8 kts | 179° |
| 2026-05-07 16:29 | 32.88072 | -97.03288 | 576 ft | 8 kts | 179° |
| 2026-05-07 16:30 | 32.88020 | -97.03282 | 576 ft | 7 kts | 157° |
| 2026-05-07 16:30 | 32.87987 | -97.03232 | 580 ft | 9 kts | 107° |
| 2026-05-07 16:30 | 32.87981 | -97.03152 | 576 ft | 11 kts | 92° |
| 2026-05-07 16:30 | 32.87981 | -97.03050 | 575 ft | 13 kts | 81° |
| 2026-05-07 16:31 | 32.88029 | -97.03007 | 577 ft | 0 kts | 1° |
| 2026-05-07 16:31 | 32.88098 | -97.03006 | 577 ft | 32 kts | 0° |
| 2026-05-07 16:31 | 32.88565 | -97.03003 | 577 ft | 99 kts | 0° |
| 2026-05-07 16:32 | 32.89455 | -97.03001 | 579 ft | 154 kts | 0° |
| 2026-05-07 16:32 | 32.90670 | -97.02999 | 708 ft | 186 kts | 1° |
| 2026-05-07 16:32 | 32.91965 | -97.02987 | 1350 ft | 188 kts | 1° |
| 2026-05-07 16:32 | 32.93280 | -97.02962 | 2031 ft | 190 kts | 360° |
| 2026-05-07 16:33 | 32.94592 | -97.03306 | 2498 ft | 203 kts | 332° |
| 2026-05-07 16:33 | 32.95819 | -97.04294 | 2773 ft | 222 kts | 329° |
| 2026-05-07 16:33 | 32.97201 | -97.05318 | 3022 ft | 244 kts | 330° |
| 2026-05-07 16:33 | 32.98662 | -97.06365 | 3674 ft | 245 kts | 331° |
| 2026-05-07 16:34 | 32.99056 | -97.06644 | 3856 ft | 245 kts | 331° |
| 2026-05-07 16:34 | 33.00460 | -97.07854 | 4582 ft | 249 kts | 310° |
| 2026-05-07 16:34 | 33.01119 | -97.09724 | 5220 ft | 255 kts | 275° |
| 2026-05-07 16:34 | 33.01071 | -97.11841 | 5907 ft | 255 kts | 268° |
| 2026-05-07 16:35 | 33.00936 | -97.13941 | 6691 ft | 252 kts | 266° |
| 2026-05-07 16:35 | 33.00792 | -97.16017 | 7391 ft | 251 kts | 266° |
| 2026-05-07 16:35 | 33.00630 | -97.18105 | 7930 ft | 258 kts | 265° |
| 2026-05-07 16:35 | 33.00416 | -97.20245 | 8461 ft | 262 kts | 264° |
| 2026-05-07 16:36 | 33.00172 | -97.22403 | 9077 ft | 264 kts | 260° |
| 2026-05-07 16:36 | 32.99568 | -97.24478 | 9689 ft | 268 kts | 244° |
| 2026-05-07 16:36 | 32.98498 | -97.26319 | 10228 ft | 276 kts | 236° |
| 2026-05-07 16:36 | 32.97278 | -97.28187 | 10341 ft | 295 kts | 236° |
| 2026-05-07 16:37 | 32.95988 | -97.30181 | 10464 ft | 312 kts | 236° |
| 2026-05-07 16:37 | 32.94627 | -97.32283 | 10584 ft | 329 kts | 236° |
| 2026-05-07 16:37 | 32.93197 | -97.34487 | 10694 ft | 344 kts | 235° |
| 2026-05-07 16:37 | 32.91717 | -97.36765 | 11045 ft | 350 kts | 235° |
| 2026-05-07 16:38 | 32.90217 | -97.39069 | 11530 ft | 352 kts | 236° |
| 2026-05-07 16:38 | 32.88711 | -97.41379 | 12059 ft | 353 kts | 236° |
| 2026-05-07 16:38 | 32.87207 | -97.43689 | 12587 ft | 354 kts | 236° |
| 2026-05-07 16:38 | 32.85701 | -97.46006 | 13148 ft | 355 kts | 236° |
| 2026-05-07 16:39 | 32.84192 | -97.48328 | 13697 ft | 355 kts | 237° |
| 2026-05-07 16:39 | 32.82681 | -97.50654 | 14138 ft | 356 kts | 237° |
| 2026-05-07 16:39 | 32.81161 | -97.52985 | 14598 ft | 357 kts | 237° |
| 2026-05-07 16:39 | 32.79631 | -97.55325 | 15059 ft | 359 kts | 237° |
| 2026-05-07 16:40 | 32.78098 | -97.57669 | 15480 ft | 360 kts | 237° |
| 2026-05-07 16:40 | 32.76553 | -97.60031 | 15902 ft | 362 kts | 237° |
| 2026-05-07 16:40 | 32.75007 | -97.62398 | 16296 ft | 364 kts | 237° |
| 2026-05-07 16:40 | 32.73449 | -97.64783 | 16722 ft | 366 kts | 237° |
| 2026-05-07 16:41 | 32.71882 | -97.67177 | 17146 ft | 368 kts | 237° |
| 2026-05-07 16:41 | 32.70308 | -97.69578 | 17546 ft | 370 kts | 237° |
| 2026-05-07 16:41 | 32.68883 | -97.72102 | 17942 ft | 366 kts | 246° |
| 2026-05-07 16:41 | 32.67921 | -97.74890 | 18397 ft | 364 kts | 256° |
| 2026-05-07 16:42 | 32.67456 | -97.77796 | 18738 ft | 363 kts | 265° |
| 2026-05-07 16:42 | 32.67236 | -97.80787 | 19086 ft | 364 kts | 265° |
| 2026-05-07 16:42 | 32.67008 | -97.83788 | 19441 ft | 366 kts | 265° |
| 2026-05-07 16:42 | 32.66775 | -97.86804 | 19790 ft | 367 kts | 265° |
| 2026-05-07 16:43 | 32.66539 | -97.89821 | 20141 ft | 368 kts | 265° |
| 2026-05-07 16:43 | 32.66301 | -97.92852 | 20479 ft | 370 kts | 265° |
| 2026-05-07 16:43 | 32.66059 | -97.95894 | 20827 ft | 371 kts | 265° |
| 2026-05-07 16:43 | 32.65817 | -97.98949 | 21156 ft | 373 kts | 265° |
| 2026-05-07 16:44 | 32.65575 | -98.02019 | 21457 ft | 375 kts | 265° |
| 2026-05-07 16:44 | 32.65331 | -98.05107 | 21772 ft | 376 kts | 264° |
| 2026-05-07 16:44 | 32.65084 | -98.08204 | 22088 ft | 378 kts | 264° |
| 2026-05-07 16:44 | 32.64834 | -98.11309 | 22263 ft | 380 kts | 264° |
| 2026-05-07 16:45 | 32.64582 | -98.14442 | 22559 ft | 382 kts | 264° |
| 2026-05-07 16:45 | 32.64329 | -98.17579 | 22910 ft | 382 kts | 264° |
| 2026-05-07 16:45 | 32.64074 | -98.20717 | 23214 ft | 383 kts | 264° |